sensor_id;sensor_type;location;lat;lon;timestamp;pressure;altitude;pressure_sealevel;temperature;humidity
72677;BME280;60755;51.374;10.662;2023-10-09T00:01:43;97699.44;;;11.05;95.18
72677;BME280;60755;51.374;10.662;2023-10-09T00:04:10;97690.84;;;10.98;95.22
72677;BME280;60755;51.374;10.662;2023-10-09T00:06:41;97682.28;;;10.91;94.12
72677;BME280;60755;51.374;10.662;2023-10-09T00:09:09;97680.53;;;10.85;93.52
72677;BME280;60755;51.374;10.662;2023-10-09T00:11:56;97669.69;;;10.93;94.84
72677;BME280;60755;51.374;10.662;2023-10-09T00:14:29;97665.78;;;10.84;96.23
72677;BME280;60755;51.374;10.662;2023-10-09T00:16:59;97671.47;;;10.81;96.38
72677;BME280;60755;51.374;10.662;2023-10-09T00:19:43;97669.31;;;10.78;97.46
72677;BME280;60755;51.374;10.662;2023-10-09T00:22:15;97659.53;;;10.67;96.03
72677;BME280;60755;51.374;10.662;2023-10-09T00:24:57;97653.16;;;10.62;97.86
72677;BME280;60755;51.374;10.662;2023-10-09T00:27:38;97650.78;;;10.73;96.91
72677;BME280;60755;51.374;10.662;2023-10-09T00:30:10;97657.16;;;10.65;97.39
72677;BME280;60755;51.374;10.662;2023-10-09T00:32:41;97653.84;;;10.70;98.20
72677;BME280;60755;51.374;10.662;2023-10-09T00:35:11;97654.28;;;10.67;96.42
72677;BME280;60755;51.374;10.662;2023-10-09T00:37:56;97650.03;;;10.54;97.98
72677;BME280;60755;51.374;10.662;2023-10-09T00:40:32;97638.03;;;10.58;98.03
72677;BME280;60755;51.374;10.662;2023-10-09T00:43:02;97633.22;;;10.43;97.97
72677;BME280;60755;51.374;10.662;2023-10-09T00:45:32;97632.31;;;10.19;98.61
72677;BME280;60755;51.374;10.662;2023-10-09T00:48:06;97625.16;;;10.08;99.43
72677;BME280;60755;51.374;10.662;2023-10-09T00:50:35;97625.13;;;9.96;99.72
72677;BME280;60755;51.374;10.662;2023-10-09T00:53:06;97628.69;;;9.84;100.00
72677;BME280;60755;51.374;10.662;2023-10-09T00:55:38;97624.09;;;9.61;100.00
72677;BME280;60755;51.374;10.662;2023-10-09T00:58:12;97629.06;;;9.69;100.00
72677;BME280;60755;51.374;10.662;2023-10-09T01:00:41;97621.25;;;9.62;100.00
72677;BME280;60755;51.374;10.662;2023-10-09T01:03:19;97615.72;;;9.52;100.00
72677;BME280;60755;51.374;10.662;2023-10-09T01:05:49;97599.97;;;9.52;100.00
72677;BME280;60755;51.374;10.662;2023-10-09T01:08:25;97596.63;;;9.45;100.00
72677;BME280;60755;51.374;10.662;2023-10-09T01:10:56;97581.69;;;9.27;100.00
72677;BME280;60755;51.374;10.662;2023-10-09T01:13:35;97587.66;;;9.34;100.00
72677;BME280;60755;51.374;10.662;2023-10-09T01:16:19;97590.44;;;9.39;100.00
72677;BME280;60755;51.374;10.662;2023-10-09T01:18:49;97582.41;;;9.34;100.00
72677;BME280;60755;51.374;10.662;2023-10-09T01:21:18;97579.94;;;9.39;100.00
72677;BME280;60755;51.374;10.662;2023-10-09T01:23:51;97571.28;;;9.39;100.00
72677;BME280;60755;51.374;10.662;2023-10-09T01:26:35;97567.13;;;9.31;100.00
72677;BME280;60755;51.374;10.662;2023-10-09T01:29:10;97559.38;;;9.36;100.00
72677;BME280;60755;51.374;10.662;2023-10-09T01:31:40;97542.84;;;9.36;100.00
72677;BME280;60755;51.374;10.662;2023-10-09T01:34:12;97538.34;;;9.43;100.00
72677;BME280;60755;51.374;10.662;2023-10-09T01:36:41;97542.91;;;9.66;100.00
72677;BME280;60755;51.374;10.662;2023-10-09T01:39:10;97541.34;;;9.76;100.00
72677;BME280;60755;51.374;10.662;2023-10-09T01:41:49;97545.25;;;10.16;100.00
72677;BME280;60755;51.374;10.662;2023-10-09T01:44:24;97536.88;;;10.25;100.00
72677;BME280;60755;51.374;10.662;2023-10-09T01:46:52;97521.63;;;10.46;100.00
72677;BME280;60755;51.374;10.662;2023-10-09T01:49:21;97525.84;;;10.58;100.00
72677;BME280;60755;51.374;10.662;2023-10-09T01:51:56;97521.88;;;10.68;100.00
72677;BME280;60755;51.374;10.662;2023-10-09T01:54:29;97517.06;;;10.76;100.00
72677;BME280;60755;51.374;10.662;2023-10-09T01:57:04;97519.00;;;10.81;100.00
72677;BME280;60755;51.374;10.662;2023-10-09T01:59:38;97498.22;;;10.91;100.00
72677;BME280;60755;51.374;10.662;2023-10-09T02:02:10;97496.91;;;11.05;100.00
72677;BME280;60755;51.374;10.662;2023-10-09T02:04:59;97505.69;;;11.23;100.00
72677;BME280;60755;51.374;10.662;2023-10-09T02:07:51;97495.16;;;11.23;100.00
72677;BME280;60755;51.374;10.662;2023-10-09T02:10:20;97483.50;;;11.30;100.00
72677;BME280;60755;51.374;10.662;2023-10-09T02:12:58;97478.56;;;11.34;100.00
72677;BME280;60755;51.374;10.662;2023-10-09T02:15:26;97486.47;;;11.34;100.00
72677;BME280;60755;51.374;10.662;2023-10-09T02:18:18;97480.03;;;11.41;100.00
72677;BME280;60755;51.374;10.662;2023-10-09T02:20:53;97495.47;;;11.49;100.00
72677;BME280;60755;51.374;10.662;2023-10-09T02:23:39;97494.53;;;11.56;100.00
72677;BME280;60755;51.374;10.662;2023-10-09T02:26:09;97492.59;;;11.51;100.00
72677;BME280;60755;51.374;10.662;2023-10-09T02:28:43;97494.75;;;11.54;100.00
72677;BME280;60755;51.374;10.662;2023-10-09T02:31:14;97497.38;;;11.54;100.00
72677;BME280;60755;51.374;10.662;2023-10-09T02:33:42;97497.06;;;11.51;100.00
72677;BME280;60755;51.374;10.662;2023-10-09T02:36:10;97484.94;;;11.49;100.00
72677;BME280;60755;51.374;10.662;2023-10-09T02:38:38;97495.28;;;11.39;100.00
72677;BME280;60755;51.374;10.662;2023-10-09T02:41:09;97486.47;;;11.34;100.00
72677;BME280;60755;51.374;10.662;2023-10-09T02:43:48;97486.28;;;11.24;100.00
72677;BME280;60755;51.374;10.662;2023-10-09T02:46:18;97490.84;;;11.16;100.00
72677;BME280;60755;51.374;10.662;2023-10-09T02:48:46;97488.47;;;11.15;100.00
72677;BME280;60755;51.374;10.662;2023-10-09T02:51:18;97476.56;;;11.12;100.00
72677;BME280;60755;51.374;10.662;2023-10-09T02:54:07;97468.78;;;11.17;100.00
72677;BME280;60755;51.374;10.662;2023-10-09T02:56:45;97491.41;;;11.18;100.00
72677;BME280;60755;51.374;10.662;2023-10-09T02:59:20;97484.44;;;11.12;100.00
72677;BME280;60755;51.374;10.662;2023-10-09T03:01:48;97476.66;;;11.17;100.00
72677;BME280;60755;51.374;10.662;2023-10-09T03:04:18;97479.38;;;11.23;100.00
72677;BME280;60755;51.374;10.662;2023-10-09T03:07:03;97468.50;;;11.31;100.00
72677;BME280;60755;51.374;10.662;2023-10-09T03:09:30;97464.28;;;11.30;100.00
72677;BME280;60755;51.374;10.662;2023-10-09T03:12:00;97458.03;;;11.19;100.00
72677;BME280;60755;51.374;10.662;2023-10-09T03:14:30;97456.53;;;11.23;100.00
72677;BME280;60755;51.374;10.662;2023-10-09T03:16:58;97441.75;;;11.22;100.00
72677;BME280;60755;51.374;10.662;2023-10-09T03:19:27;97435.84;;;11.15;100.00
72677;BME280;60755;51.374;10.662;2023-10-09T03:21:54;97440.28;;;11.14;100.00
72677;BME280;60755;51.374;10.662;2023-10-09T03:24:23;97440.28;;;11.14;100.00
72677;BME280;60755;51.374;10.662;2023-10-09T03:26:51;97435.03;;;11.14;100.00
72677;BME280;60755;51.374;10.662;2023-10-09T03:29:23;97436.41;;;11.17;100.00
72677;BME280;60755;51.374;10.662;2023-10-09T03:31:50;97433.44;;;11.13;100.00
72677;BME280;60755;51.374;10.662;2023-10-09T03:34:18;97432.41;;;11.14;100.00
72677;BME280;60755;51.374;10.662;2023-10-09T03:36:46;97428.53;;;11.17;100.00
72677;BME280;60755;51.374;10.662;2023-10-09T03:39:17;97414.06;;;11.31;100.00
72677;BME280;60755;51.374;10.662;2023-10-09T03:41:51;97413.03;;;11.32;100.00
72677;BME280;60755;51.374;10.662;2023-10-09T03:44:20;97410.84;;;11.29;100.00
72677;BME280;60755;51.374;10.662;2023-10-09T03:46:49;97405.69;;;11.34;100.00
72677;BME280;60755;51.374;10.662;2023-10-09T03:49:17;97400.84;;;11.43;100.00
72677;BME280;60755;51.374;10.662;2023-10-09T03:51:49;97389.19;;;11.39;100.00
72677;BME280;60755;51.374;10.662;2023-10-09T03:54:17;97389.63;;;11.47;100.00
72677;BME280;60755;51.374;10.662;2023-10-09T03:56:46;97382.84;;;11.52;100.00
72677;BME280;60755;51.374;10.662;2023-10-09T03:59:16;97383.09;;;11.50;100.00
72677;BME280;60755;51.374;10.662;2023-10-09T04:01:43;97378.88;;;11.49;100.00
72677;BME280;60755;51.374;10.662;2023-10-09T04:04:13;97383.38;;;11.37;100.00
72677;BME280;60755;51.374;10.662;2023-10-09T04:06:40;97379.63;;;11.33;100.00
72677;BME280;60755;51.374;10.662;2023-10-09T04:09:09;97390.34;;;11.43;100.00
72677;BME280;60755;51.374;10.662;2023-10-09T04:11:54;97385.56;;;11.40;100.00
72677;BME280;60755;51.374;10.662;2023-10-09T04:14:44;97384.59;;;11.46;100.00
72677;BME280;60755;51.374;10.662;2023-10-09T04:17:16;97388.75;;;11.42;100.00
72677;BME280;60755;51.374;10.662;2023-10-09T04:20:08;97382.13;;;11.39;100.00
72677;BME280;60755;51.374;10.662;2023-10-09T04:22:53;97376.28;;;11.37;100.00
72677;BME280;60755;51.374;10.662;2023-10-09T04:25:31;97379.78;;;11.26;100.00
72677;BME280;60755;51.374;10.662;2023-10-09T04:28:08;97377.81;;;11.21;100.00
72677;BME280;60755;51.374;10.662;2023-10-09T04:30:38;97363.31;;;11.19;100.00
72677;BME280;60755;51.374;10.662;2023-10-09T04:33:08;97368.34;;;11.20;100.00
72677;BME280;60755;51.374;10.662;2023-10-09T04:35:55;97364.59;;;11.16;100.00
72677;BME280;60755;51.374;10.662;2023-10-09T04:38:48;97370.78;;;11.10;100.00
72677;BME280;60755;51.374;10.662;2023-10-09T04:41:41;97361.63;;;11.13;100.00
72677;BME280;60755;51.374;10.662;2023-10-09T04:44:19;97358.38;;;11.23;100.00
72677;BME280;60755;51.374;10.662;2023-10-09T04:46:45;97358.53;;;11.16;100.00
72677;BME280;60755;51.374;10.662;2023-10-09T04:49:32;97361.06;;;11.11;100.00
72677;BME280;60755;51.374;10.662;2023-10-09T04:52:17;97361.63;;;11.13;100.00
72677;BME280;60755;51.374;10.662;2023-10-09T04:54:45;97358.34;;;11.06;100.00
72677;BME280;60755;51.374;10.662;2023-10-09T04:57:27;97346.44;;;11.15;100.00
72677;BME280;60755;51.374;10.662;2023-10-09T04:59:56;97344.44;;;11.22;100.00
72677;BME280;60755;51.374;10.662;2023-10-09T05:02:24;97349.66;;;11.34;100.00
72677;BME280;60755;51.374;10.662;2023-10-09T05:05:02;97348.72;;;11.40;100.00
72677;BME280;60755;51.374;10.662;2023-10-09T05:08:04;97338.34;;;11.50;100.00
72677;BME280;60755;51.374;10.662;2023-10-09T05:10:45;97342.69;;;11.56;100.00
72677;BME280;60755;51.374;10.662;2023-10-09T05:13:27;97342.69;;;11.56;100.00
72677;BME280;60755;51.374;10.662;2023-10-09T05:16:09;97343.88;;;11.65;100.00
72677;BME280;60755;51.374;10.662;2023-10-09T05:18:44;97345.56;;;11.71;100.00
72677;BME280;60755;51.374;10.662;2023-10-09T05:21:11;97342.97;;;11.88;100.00
72677;BME280;60755;51.374;10.662;2023-10-09T05:23:53;97341.56;;;12.02;100.00
72677;BME280;60755;51.374;10.662;2023-10-09T05:26:35;97353.84;;;12.30;100.00
72677;BME280;60755;51.374;10.662;2023-10-09T05:29:18;97354.44;;;12.54;100.00
72677;BME280;60755;51.374;10.662;2023-10-09T05:32:01;97350.56;;;12.62;100.00
72677;BME280;60755;51.374;10.662;2023-10-09T05:34:42;97352.91;;;12.80;100.00
72677;BME280;60755;51.374;10.662;2023-10-09T05:37:24;97369.94;;;12.95;100.00
72677;BME280;60755;51.374;10.662;2023-10-09T05:39:53;97356.31;;;13.03;100.00
72677;BME280;60755;51.374;10.662;2023-10-09T05:42:45;97364.25;;;13.03;100.00
72677;BME280;60755;51.374;10.662;2023-10-09T05:45:23;97366.81;;;13.20;100.00
72677;BME280;60755;51.374;10.662;2023-10-09T05:48:08;97378.25;;;13.25;100.00
72677;BME280;60755;51.374;10.662;2023-10-09T05:51:06;97371.28;;;13.19;100.00
72677;BME280;60755;51.374;10.662;2023-10-09T05:53:39;97378.06;;;13.32;100.00
72677;BME280;60755;51.374;10.662;2023-10-09T05:56:25;97378.59;;;13.34;100.00
72677;BME280;60755;51.374;10.662;2023-10-09T05:59:09;97380.91;;;13.30;100.00
72677;BME280;60755;51.374;10.662;2023-10-09T06:01:54;97368.91;;;13.39;100.00
72677;BME280;60755;51.374;10.662;2023-10-09T06:04:35;97380.53;;;13.43;100.00
72677;BME280;60755;51.374;10.662;2023-10-09T06:07:20;97373.16;;;13.46;100.00
72677;BME280;60755;51.374;10.662;2023-10-09T06:10:07;97377.19;;;13.53;100.00
72677;BME280;60755;51.374;10.662;2023-10-09T06:12:46;97380.38;;;13.55;100.00
72677;BME280;60755;51.374;10.662;2023-10-09T06:15:16;97389.16;;;13.61;100.00
72677;BME280;60755;51.374;10.662;2023-10-09T06:17:57;97400.03;;;13.64;100.00
72677;BME280;60755;51.374;10.662;2023-10-09T06:20:45;97403.81;;;13.74;100.00
72677;BME280;60755;51.374;10.662;2023-10-09T06:23:32;97394.31;;;13.78;100.00
72677;BME280;60755;51.374;10.662;2023-10-09T06:26:13;97401.41;;;13.72;100.00
72677;BME280;60755;51.374;10.662;2023-10-09T06:28:52;97405.59;;;13.68;100.00
72677;BME280;60755;51.374;10.662;2023-10-09T06:31:33;97417.84;;;13.79;100.00
72677;BME280;60755;51.374;10.662;2023-10-09T06:34:23;97425.19;;;13.72;100.00
72677;BME280;60755;51.374;10.662;2023-10-09T06:36:59;97444.69;;;13.71;100.00
72677;BME280;60755;51.374;10.662;2023-10-09T06:39:33;97432.59;;;13.75;100.00
72677;BME280;60755;51.374;10.662;2023-10-09T06:42:33;97431.59;;;13.81;100.00
72677;BME280;60755;51.374;10.662;2023-10-09T07:23:39;97440.22;;;14.68;93.30
72677;BME280;60755;51.374;10.662;2023-10-09T07:26:19;97431.06;;;14.91;92.08
72677;BME280;60755;51.374;10.662;2023-10-09T07:29:13;97433.63;;;14.75;92.37
72677;BME280;60755;51.374;10.662;2023-10-09T07:31:49;97435.00;;;14.83;91.92
72677;BME280;60755;51.374;10.662;2023-10-09T07:34:43;97443.00;;;14.93;91.54
72677;BME280;60755;51.374;10.662;2023-10-09T07:37:33;97443.09;;;15.08;90.19
72677;BME280;60755;51.374;10.662;2023-10-09T07:40:06;97448.09;;;15.05;90.53
72677;BME280;60755;51.374;10.662;2023-10-09T07:42:34;97448.91;;;15.10;90.53
72677;BME280;60755;51.374;10.662;2023-10-09T07:45:09;97456.88;;;15.16;90.02
72677;BME280;60755;51.374;10.662;2023-10-09T07:47:59;97454.47;;;15.14;89.02
72677;BME280;60755;51.374;10.662;2023-10-09T07:50:35;97460.81;;;15.08;90.58
72677;BME280;60755;51.374;10.662;2023-10-09T07:53:06;97455.72;;;14.96;90.48
72677;BME280;60755;51.374;10.662;2023-10-09T07:55:46;97459.78;;;15.09;91.12
72677;BME280;60755;51.374;10.662;2023-10-09T07:58:20;97464.75;;;15.05;91.87
72677;BME280;60755;51.374;10.662;2023-10-09T08:00:52;97459.13;;;14.92;91.71
72677;BME280;60755;51.374;10.662;2023-10-09T08:03:43;97465.25;;;14.92;91.16
72677;BME280;60755;51.374;10.662;2023-10-09T08:06:12;97464.69;;;14.90;91.78
72677;BME280;60755;51.374;10.662;2023-10-09T08:08:57;97469.50;;;14.98;92.63
72677;BME280;60755;51.374;10.662;2023-10-09T08:11:44;97480.16;;;15.14;89.91
72677;BME280;60755;51.374;10.662;2023-10-09T08:14:40;97480.91;;;15.04;90.94
72677;BME280;60755;51.374;10.662;2023-10-09T08:17:11;97489.19;;;15.18;91.21
72677;BME280;60755;51.374;10.662;2023-10-09T08:19:40;97488.09;;;15.08;92.19
72677;BME280;60755;51.374;10.662;2023-10-09T08:22:25;97479.09;;;15.15;91.48
72677;BME280;60755;51.374;10.662;2023-10-09T08:25:10;97488.31;;;15.07;93.23
72677;BME280;60755;51.374;10.662;2023-10-09T08:27:54;97487.03;;;15.15;93.50
72677;BME280;60755;51.374;10.662;2023-10-09T08:30:23;97488.63;;;15.16;92.62
72677;BME280;60755;51.374;10.662;2023-10-09T08:33:06;97490.47;;;15.10;93.74
72677;BME280;60755;51.374;10.662;2023-10-09T08:35:47;97493.84;;;14.95;94.83
72677;BME280;60755;51.374;10.662;2023-10-09T08:38:15;97498.06;;;14.96;95.59
72677;BME280;60755;51.374;10.662;2023-10-09T08:40:49;97503.91;;;14.98;95.41
72677;BME280;60755;51.374;10.662;2023-10-09T08:43:21;97491.41;;;14.89;96.30
72677;BME280;60755;51.374;10.662;2023-10-09T08:45:50;97483.91;;;14.75;96.96
72677;BME280;60755;51.374;10.662;2023-10-09T08:48:18;97480.22;;;14.76;97.30
72677;BME280;60755;51.374;10.662;2023-10-09T08:50:46;97481.81;;;14.77;98.94
72677;BME280;60755;51.374;10.662;2023-10-09T08:53:16;97476.75;;;14.71;97.75
72677;BME280;60755;51.374;10.662;2023-10-09T08:55:43;97459.91;;;14.87;96.42
72677;BME280;60755;51.374;10.662;2023-10-09T08:58:14;97458.03;;;14.82;97.38
72677;BME280;60755;51.374;10.662;2023-10-09T09:00:45;97462.03;;;14.85;99.04
72677;BME280;60755;51.374;10.662;2023-10-09T09:03:13;97452.31;;;15.06;97.81
72677;BME280;60755;51.374;10.662;2023-10-09T09:05:45;97458.47;;;15.17;97.78
72677;BME280;60755;51.374;10.662;2023-10-09T09:08:22;97452.06;;;15.07;97.06
72677;BME280;60755;51.374;10.662;2023-10-09T09:10:57;97451.84;;;15.14;96.97
72677;BME280;60755;51.374;10.662;2023-10-09T09:13:38;97450.53;;;15.22;96.99
72677;BME280;60755;51.374;10.662;2023-10-09T09:16:15;97439.19;;;15.31;97.89
72677;BME280;60755;51.374;10.662;2023-10-09T09:18:51;97436.00;;;15.29;96.62
72677;BME280;60755;51.374;10.662;2023-10-09T09:21:26;97438.72;;;15.45;95.81
72677;BME280;60755;51.374;10.662;2023-10-09T09:23:58;97434.75;;;15.42;96.18
72677;BME280;60755;51.374;10.662;2023-10-09T09:26:34;97440.59;;;15.49;95.98
72677;BME280;60755;51.374;10.662;2023-10-09T09:29:04;97431.06;;;15.48;95.99
72677;BME280;60755;51.374;10.662;2023-10-09T09:31:36;97432.09;;;15.47;95.13
72677;BME280;60755;51.374;10.662;2023-10-09T09:34:05;97430.00;;;15.59;94.70
72677;BME280;60755;51.374;10.662;2023-10-09T09:36:49;97421.00;;;15.60;93.67
72677;BME280;60755;51.374;10.662;2023-10-09T09:39:25;97415.47;;;15.67;94.59
72677;BME280;60755;51.374;10.662;2023-10-09T09:41:56;97417.59;;;15.65;93.71
72677;BME280;60755;51.374;10.662;2023-10-09T09:44:33;97416.81;;;15.64;93.88
72677;BME280;60755;51.374;10.662;2023-10-09T09:47:12;97417.88;;;15.84;94.15
72677;BME280;60755;51.374;10.662;2023-10-09T09:49:50;97418.94;;;15.93;93.09
72677;BME280;60755;51.374;10.662;2023-10-09T09:52:26;97420.53;;;15.74;94.82
72677;BME280;60755;51.374;10.662;2023-10-09T09:54:55;97407.81;;;15.91;94.67
72677;BME280;60755;51.374;10.662;2023-10-09T09:57:23;97413.91;;;16.02;92.11
72677;BME280;60755;51.374;10.662;2023-10-09T09:59:52;97417.91;;;16.14;92.47
72677;BME280;60755;51.374;10.662;2023-10-09T10:02:29;97412.09;;;16.12;92.55
72677;BME280;60755;51.374;10.662;2023-10-09T10:05:01;97420.00;;;16.17;92.45
72677;BME280;60755;51.374;10.662;2023-10-09T10:07:32;97420.00;;;16.17;92.04
72677;BME280;60755;51.374;10.662;2023-10-09T10:10:34;97408.34;;;16.39;91.98
72677;BME280;60755;51.374;10.662;2023-10-09T10:13:03;97424.81;;;16.20;90.84
72677;BME280;60755;51.374;10.662;2023-10-09T10:15:58;97431.16;;;16.14;91.89
72677;BME280;60755;51.374;10.662;2023-10-09T10:18:33;97426.09;;;16.33;91.52
72677;BME280;60755;51.374;10.662;2023-10-09T10:21:10;97418.97;;;16.13;91.46
72677;BME280;60755;51.374;10.662;2023-10-09T10:23:41;97420.03;;;16.07;92.68
72677;BME280;60755;51.374;10.662;2023-10-09T10:26:16;97404.88;;;16.28;92.56
72677;BME280;60755;51.374;10.662;2023-10-09T10:29:14;97397.16;;;16.77;91.76
72677;BME280;60755;51.374;10.662;2023-10-09T10:31:52;97393.63;;;16.92;90.40
72677;BME280;60755;51.374;10.662;2023-10-09T10:34:22;97403.97;;;16.99;89.32
72677;BME280;60755;51.374;10.662;2023-10-09T10:36:50;97390.97;;;16.92;87.30
72677;BME280;60755;51.374;10.662;2023-10-09T10:39:24;97394.91;;;17.10;87.85
72677;BME280;60755;51.374;10.662;2023-10-09T10:42:08;97394.91;;;17.00;86.95
72677;BME280;60755;51.374;10.662;2023-10-09T10:44:40;97398.34;;;17.05;87.66
72677;BME280;60755;51.374;10.662;2023-10-09T10:47:12;97394.06;;;17.15;87.21
72677;BME280;60755;51.374;10.662;2023-10-09T10:49:53;97392.03;;;17.51;85.90
72677;BME280;60755;51.374;10.662;2023-10-09T10:52:25;97373.44;;;17.51;87.19
72677;BME280;60755;51.374;10.662;2023-10-09T10:55:18;97373.75;;;17.83;86.61
72677;BME280;60755;51.374;10.662;2023-10-09T10:58:37;97368.06;;;17.95;84.70
72677;BME280;60755;51.374;10.662;2023-10-09T11:01:38;97378.50;;;17.86;84.97
72677;BME280;60755;51.374;10.662;2023-10-09T11:04:51;97379.16;;;17.73;83.32
72677;BME280;60755;51.374;10.662;2023-10-09T11:07:40;97386.25;;;17.83;83.96
72677;BME280;60755;51.374;10.662;2023-10-09T11:10:08;97382.13;;;18.01;84.40
72677;BME280;60755;51.374;10.662;2023-10-09T11:12:44;97374.13;;;18.06;82.86
72677;BME280;60755;51.374;10.662;2023-10-09T11:15:33;97381.25;;;18.10;82.11
72677;BME280;60755;51.374;10.662;2023-10-09T11:18:10;97381.16;;;18.21;82.10
72677;BME280;60755;51.374;10.662;2023-10-09T11:20:48;97376.97;;;18.14;81.94
72677;BME280;60755;51.374;10.662;2023-10-09T11:23:23;97379.59;;;17.85;81.71
72677;BME280;60755;51.374;10.662;2023-10-09T11:25:55;97381.16;;;17.92;79.65
72677;BME280;60755;51.374;10.662;2023-10-09T11:28:43;97379.31;;;18.21;79.12
72677;BME280;60755;51.374;10.662;2023-10-09T11:31:15;97382.13;;;18.01;83.06
72677;BME280;60755;51.374;10.662;2023-10-09T11:33:43;97385.22;;;18.13;80.21
72677;BME280;60755;51.374;10.662;2023-10-09T11:36:11;97387.94;;;18.08;80.52
72677;BME280;60755;51.374;10.662;2023-10-09T11:38:38;97377.69;;;17.91;81.99
72677;BME280;60755;51.374;10.662;2023-10-09T11:41:12;97372.56;;;18.00;82.24
72677;BME280;60755;51.374;10.662;2023-10-09T11:43:48;97384.50;;;18.02;79.26
72677;BME280;60755;51.374;10.662;2023-10-09T11:46:18;97377.75;;;18.15;80.50
72677;BME280;60755;51.374;10.662;2023-10-09T11:49:06;97378.56;;;18.15;81.85
72677;BME280;60755;51.374;10.662;2023-10-09T11:52:09;97372.00;;;18.32;80.18
72677;BME280;60755;51.374;10.662;2023-10-09T11:54:53;97377.56;;;18.35;81.12
72677;BME280;60755;51.374;10.662;2023-10-09T11:57:24;97363.28;;;18.26;79.92
72677;BME280;60755;51.374;10.662;2023-10-09T11:59:56;97362.28;;;18.22;79.88
72677;BME280;60755;51.374;10.662;2023-10-09T12:02:24;97356.69;;;18.18;80.13
72677;BME280;60755;51.374;10.662;2023-10-09T12:04:53;97348.44;;;18.20;79.41
72677;BME280;60755;51.374;10.662;2023-10-09T12:07:24;97353.72;;;18.25;80.11
72677;BME280;60755;51.374;10.662;2023-10-09T12:09:51;97343.56;;;18.27;79.66
72677;BME280;60755;51.374;10.662;2023-10-09T12:12:22;97335.56;;;18.32;77.75
72677;BME280;60755;51.374;10.662;2023-10-09T12:14:52;97339.72;;;18.14;79.99
72677;BME280;60755;51.374;10.662;2023-10-09T12:17:19;97337.19;;;18.28;79.14
72677;BME280;60755;51.374;10.662;2023-10-09T12:19:50;97344.00;;;18.63;77.18
72677;BME280;60755;51.374;10.662;2023-10-09T12:22:18;97347.59;;;18.54;77.48
72677;BME280;60755;51.374;10.662;2023-10-09T12:24:48;97343.97;;;18.68;78.50
72677;BME280;60755;51.374;10.662;2023-10-09T12:27:15;97355.94;;;18.71;76.25
72677;BME280;60755;51.374;10.662;2023-10-09T12:29:46;97359.28;;;18.53;77.53
72677;BME280;60755;51.374;10.662;2023-10-09T12:32:13;97371.22;;;18.31;78.86
72677;BME280;60755;51.374;10.662;2023-10-09T12:34:45;97370.19;;;18.27;78.60
72677;BME280;60755;51.374;10.662;2023-10-09T12:37:16;97364.06;;;18.27;80.06
72677;BME280;60755;51.374;10.662;2023-10-09T12:39:47;97363.72;;;17.75;80.49
72677;BME280;60755;51.374;10.662;2023-10-09T12:42:15;97377.22;;;17.84;80.22
72677;BME280;60755;51.374;10.662;2023-10-09T12:44:42;97385.63;;;17.57;80.33
72677;BME280;60755;51.374;10.662;2023-10-09T12:47:10;97391.59;;;17.83;80.79
72677;BME280;60755;51.374;10.662;2023-10-09T12:49:37;97405.63;;;17.44;80.04
72677;BME280;60755;51.374;10.662;2023-10-09T12:52:06;97404.84;;;17.39;81.25
72677;BME280;60755;51.374;10.662;2023-10-09T12:54:41;97400.44;;;17.14;82.58
72677;BME280;60755;51.374;10.662;2023-10-09T12:57:13;97398.34;;;17.05;84.53
72677;BME280;60755;51.374;10.662;2023-10-09T12:59:41;97393.38;;;16.89;85.16
72677;BME280;60755;51.374;10.662;2023-10-09T13:02:12;97397.09;;;16.88;86.44
72677;BME280;60755;51.374;10.662;2023-10-09T13:04:39;97397.66;;;16.64;88.57
72677;BME280;60755;51.374;10.662;2023-10-09T13:07:07;97391.31;;;16.60;88.37
72677;BME280;60755;51.374;10.662;2023-10-09T13:09:35;97391.06;;;16.62;89.28
72677;BME280;60755;51.374;10.662;2023-10-09T13:12:08;97388.41;;;16.51;89.86
72677;BME280;60755;51.374;10.662;2023-10-09T13:14:37;97397.16;;;16.77;89.16
72677;BME280;60755;51.374;10.662;2023-10-09T13:17:04;97399.25;;;16.86;90.56
72677;BME280;60755;51.374;10.662;2023-10-09T13:19:35;97397.88;;;16.93;89.32
72677;BME280;60755;51.374;10.662;2023-10-09T13:22:02;97397.63;;;16.95;90.41
72677;BME280;60755;51.374;10.662;2023-10-09T13:24:38;97390.78;;;16.68;91.40
72677;BME280;60755;51.374;10.662;2023-10-09T13:27:05;97390.50;;;16.65;92.06
72677;BME280;60755;51.374;10.662;2023-10-09T13:29:37;97392.13;;;16.61;91.90
72677;BME280;60755;51.374;10.662;2023-10-09T13:32:06;97397.94;;;16.58;92.33
72677;BME280;60755;51.374;10.662;2023-10-09T13:34:39;97398.00;;;16.37;92.35
72677;BME280;60755;51.374;10.662;2023-10-09T13:37:10;97395.38;;;16.22;94.13
72677;BME280;60755;51.374;10.662;2023-10-09T13:39:39;97379.19;;;16.08;95.98
72677;BME280;60755;51.374;10.662;2023-10-09T13:42:17;97389.25;;;15.71;98.56
72677;BME280;60755;51.374;10.662;2023-10-09T13:44:46;97398.00;;;15.71;99.05
72677;BME280;60755;51.374;10.662;2023-10-09T13:47:14;97396.13;;;15.61;100.00
72677;BME280;60755;51.374;10.662;2023-10-09T13:49:54;97392.34;;;15.42;100.00
72677;BME280;60755;51.374;10.662;2023-10-09T13:52:23;97393.41;;;15.41;100.00
72677;BME280;60755;51.374;10.662;2023-10-09T13:54:49;97398.16;;;15.39;100.00
72677;BME280;60755;51.374;10.662;2023-10-09T13:57:16;97410.66;;;15.54;100.00
72677;BME280;60755;51.374;10.662;2023-10-09T13:59:49;97404.28;;;15.55;100.00
72677;BME280;60755;51.374;10.662;2023-10-09T14:02:17;97411.44;;;15.44;100.00
72677;BME280;60755;51.374;10.662;2023-10-09T14:04:45;97415.38;;;15.36;100.00
72677;BME280;60755;51.374;10.662;2023-10-09T14:07:12;97422.81;;;15.45;100.00